sensor_id;sensor_type;location;lat;lon;timestamp;P1;durP1;ratioP1;P2;durP2;ratioP2
18695;SDS011;22617;43.690;27.956;2023-10-19T00:00:40;3.17;;;1.83;;
18695;SDS011;22617;43.690;27.956;2023-10-19T00:05:46;3.97;;;1.70;;
18695;SDS011;22617;43.690;27.956;2023-10-19T00:10:54;3.27;;;2.00;;
18695;SDS011;22617;43.690;27.956;2023-10-19T00:16:06;5.80;;;1.70;;
18695;SDS011;22617;43.690;27.956;2023-10-19T00:21:19;3.27;;;1.73;;
18695;SDS011;22617;43.690;27.956;2023-10-19T00:26:25;3.07;;;2.03;;
18695;SDS011;22617;43.690;27.956;2023-10-19T00:31:36;3.13;;;1.60;;
18695;SDS011;22617;43.690;27.956;2023-10-19T00:36:42;3.97;;;1.60;;
18695;SDS011;22617;43.690;27.956;2023-10-19T00:41:47;2.13;;;1.43;;
18695;SDS011;22617;43.690;27.956;2023-10-19T00:46:53;3.10;;;2.27;;
18695;SDS011;22617;43.690;27.956;2023-10-19T00:52:03;2.73;;;1.60;;
18695;SDS011;22617;43.690;27.956;2023-10-19T00:57:14;1.90;;;1.40;;
18695;SDS011;22617;43.690;27.956;2023-10-19T01:02:23;3.23;;;1.60;;
18695;SDS011;22617;43.690;27.956;2023-10-19T01:07:32;1.97;;;1.27;;
18695;SDS011;22617;43.690;27.956;2023-10-19T01:12:41;3.37;;;1.57;;
18695;SDS011;22617;43.690;27.956;2023-10-19T01:17:47;2.00;;;1.30;;
18695;SDS011;22617;43.690;27.956;2023-10-19T01:22:58;3.23;;;1.70;;
18695;SDS011;22617;43.690;27.956;2023-10-19T01:28:16;3.60;;;1.40;;
18695;SDS011;22617;43.690;27.956;2023-10-19T01:33:21;4.03;;;1.43;;
18695;SDS011;22617;43.690;27.956;2023-10-19T01:38:26;2.90;;;1.43;;
18695;SDS011;22617;43.690;27.956;2023-10-19T01:43:33;4.23;;;2.03;;
18695;SDS011;22617;43.690;27.956;2023-10-19T01:48:38;1.80;;;1.03;;
18695;SDS011;22617;43.690;27.956;2023-10-19T01:53:45;2.30;;;1.40;;
18695;SDS011;22617;43.690;27.956;2023-10-19T01:58:49;3.10;;;1.50;;
18695;SDS011;22617;43.690;27.956;2023-10-19T02:03:54;2.50;;;1.40;;
18695;SDS011;22617;43.690;27.956;2023-10-19T02:09:02;2.37;;;1.50;;
18695;SDS011;22617;43.690;27.956;2023-10-19T02:14:19;5.03;;;1.60;;
18695;SDS011;22617;43.690;27.956;2023-10-19T02:19:25;2.67;;;1.40;;
18695;SDS011;22617;43.690;27.956;2023-10-19T02:24:31;2.47;;;1.30;;
18695;SDS011;22617;43.690;27.956;2023-10-19T02:29:35;1.80;;;1.30;;
18695;SDS011;22617;43.690;27.956;2023-10-19T02:34:40;3.43;;;1.57;;
18695;SDS011;22617;43.690;27.956;2023-10-19T02:39:45;1.90;;;1.20;;
18695;SDS011;22617;43.690;27.956;2023-10-19T02:44:51;3.40;;;1.60;;
18695;SDS011;22617;43.690;27.956;2023-10-19T02:49:54;2.47;;;1.43;;
18695;SDS011;22617;43.690;27.956;2023-10-19T02:55:01;2.10;;;1.30;;
18695;SDS011;22617;43.690;27.956;2023-10-19T03:05:36;1.97;;;1.20;;
18695;SDS011;22617;43.690;27.956;2023-10-19T03:10:45;2.70;;;1.50;;
18695;SDS011;22617;43.690;27.956;2023-10-19T03:16:03;2.63;;;1.40;;
18695;SDS011;22617;43.690;27.956;2023-10-19T03:21:09;2.53;;;1.53;;
18695;SDS011;22617;43.690;27.956;2023-10-19T03:26:14;3.90;;;1.50;;
18695;SDS011;22617;43.690;27.956;2023-10-19T03:31:24;2.23;;;1.40;;
18695;SDS011;22617;43.690;27.956;2023-10-19T03:36:28;3.20;;;1.70;;
18695;SDS011;22617;43.690;27.956;2023-10-19T03:41:36;3.67;;;1.70;;
18695;SDS011;22617;43.690;27.956;2023-10-19T03:46:44;2.40;;;1.80;;
18695;SDS011;22617;43.690;27.956;2023-10-19T03:51:58;4.10;;;1.57;;
18695;SDS011;22617;43.690;27.956;2023-10-19T03:57:06;3.17;;;1.67;;
18695;SDS011;22617;43.690;27.956;2023-10-19T04:02:14;4.83;;;2.07;;
18695;SDS011;22617;43.690;27.956;2023-10-19T04:07:23;2.57;;;1.50;;
18695;SDS011;22617;43.690;27.956;2023-10-19T04:12:29;2.87;;;1.63;;
18695;SDS011;22617;43.690;27.956;2023-10-19T04:17:33;5.07;;;1.50;;
18695;SDS011;22617;43.690;27.956;2023-10-19T04:22:38;2.83;;;1.60;;
18695;SDS011;22617;43.690;27.956;2023-10-19T04:27:43;2.23;;;1.43;;
18695;SDS011;22617;43.690;27.956;2023-10-19T04:32:48;4.27;;;1.80;;
18695;SDS011;22617;43.690;27.956;2023-10-19T04:37:53;3.10;;;1.63;;
18695;SDS011;22617;43.690;27.956;2023-10-19T04:43:01;3.97;;;1.80;;
18695;SDS011;22617;43.690;27.956;2023-10-19T04:48:06;3.93;;;1.80;;
18695;SDS011;22617;43.690;27.956;2023-10-19T04:53:12;4.27;;;1.63;;
18695;SDS011;22617;43.690;27.956;2023-10-19T04:58:16;3.57;;;1.40;;
18695;SDS011;22617;43.690;27.956;2023-10-19T05:03:20;7.87;;;2.00;;
18695;SDS011;22617;43.690;27.956;2023-10-19T05:08:24;6.23;;;1.97;;
18695;SDS011;22617;43.690;27.956;2023-10-19T05:13:31;8.67;;;2.30;;
18695;SDS011;22617;43.690;27.956;2023-10-19T05:18:35;27.10;;;2.83;;
18695;SDS011;22617;43.690;27.956;2023-10-19T05:23:40;17.53;;;2.37;;
18695;SDS011;22617;43.690;27.956;2023-10-19T05:28:45;8.13;;;2.07;;
18695;SDS011;22617;43.690;27.956;2023-10-19T05:33:49;5.07;;;1.80;;
18695;SDS011;22617;43.690;27.956;2023-10-19T05:38:55;4.70;;;1.97;;
18695;SDS011;22617;43.690;27.956;2023-10-19T05:43:59;7.93;;;2.30;;
18695;SDS011;22617;43.690;27.956;2023-10-19T05:49:03;5.10;;;2.20;;
18695;SDS011;22617;43.690;27.956;2023-10-19T05:54:08;3.33;;;1.80;;
18695;SDS011;22617;43.690;27.956;2023-10-19T05:59:13;3.17;;;1.43;;
18695;SDS011;22617;43.690;27.956;2023-10-19T06:04:16;3.77;;;1.60;;
18695;SDS011;22617;43.690;27.956;2023-10-19T06:09:32;7.97;;;1.60;;
18695;SDS011;22617;43.690;27.956;2023-10-19T06:14:37;3.63;;;1.50;;
18695;SDS011;22617;43.690;27.956;2023-10-19T06:19:41;4.87;;;1.50;;
18695;SDS011;22617;43.690;27.956;2023-10-19T06:24:45;2.20;;;1.50;;
18695;SDS011;22617;43.690;27.956;2023-10-19T06:29:50;3.77;;;1.40;;
18695;SDS011;22617;43.690;27.956;2023-10-19T06:34:54;3.40;;;1.40;;
18695;SDS011;22617;43.690;27.956;2023-10-19T06:39:59;4.37;;;1.27;;
18695;SDS011;22617;43.690;27.956;2023-10-19T06:45:06;7.53;;;1.50;;
18695;SDS011;22617;43.690;27.956;2023-10-19T06:50:12;4.63;;;1.30;;
18695;SDS011;22617;43.690;27.956;2023-10-19T06:55:17;6.40;;;1.10;;
18695;SDS011;22617;43.690;27.956;2023-10-19T07:00:24;5.00;;;1.10;;
18695;SDS011;22617;43.690;27.956;2023-10-19T07:05:29;2.77;;;1.10;;
18695;SDS011;22617;43.690;27.956;2023-10-19T07:10:33;9.93;;;1.77;;
18695;SDS011;22617;43.690;27.956;2023-10-19T07:15:38;3.43;;;1.27;;
18695;SDS011;22617;43.690;27.956;2023-10-19T07:20:43;6.50;;;1.20;;
18695;SDS011;22617;43.690;27.956;2023-10-19T07:25:50;86.63;;;4.97;;
18695;SDS011;22617;43.690;27.956;2023-10-19T07:30:58;4.13;;;1.10;;
18695;SDS011;22617;43.690;27.956;2023-10-19T07:36:02;5.27;;;1.43;;
18695;SDS011;22617;43.690;27.956;2023-10-19T07:41:10;10.93;;;1.50;;
18695;SDS011;22617;43.690;27.956;2023-10-19T07:46:15;4.43;;;1.13;;
18695;SDS011;22617;43.690;27.956;2023-10-19T07:51:18;5.10;;;1.30;;
18695;SDS011;22617;43.690;27.956;2023-10-19T07:56:23;3.93;;;1.20;;
18695;SDS011;22617;43.690;27.956;2023-10-19T08:01:28;6.93;;;1.50;;
18695;SDS011;22617;43.690;27.956;2023-10-19T08:06:32;7.87;;;1.40;;
18695;SDS011;22617;43.690;27.956;2023-10-19T08:11:35;4.57;;;1.03;;
18695;SDS011;22617;43.690;27.956;2023-10-19T08:16:40;2.97;;;1.20;;
18695;SDS011;22617;43.690;27.956;2023-10-19T08:21:45;2.10;;;1.00;;
18695;SDS011;22617;43.690;27.956;2023-10-19T08:26:50;3.37;;;1.07;;
18695;SDS011;22617;43.690;27.956;2023-10-19T08:31:55;5.33;;;1.20;;
18695;SDS011;22617;43.690;27.956;2023-10-19T08:36:59;4.60;;;1.20;;
18695;SDS011;22617;43.690;27.956;2023-10-19T08:42:02;9.73;;;2.22;;
18695;SDS011;22617;43.690;27.956;2023-10-19T08:47:08;6.30;;;1.33;;
18695;SDS011;22617;43.690;27.956;2023-10-19T08:52:14;2.00;;;1.10;;
18695;SDS011;22617;43.690;27.956;2023-10-19T08:57:20;6.70;;;1.17;;
18695;SDS011;22617;43.690;27.956;2023-10-19T09:02:26;4.53;;;1.10;;
18695;SDS011;22617;43.690;27.956;2023-10-19T09:07:29;17.25;;;1.95;;
18695;SDS011;22617;43.690;27.956;2023-10-19T09:12:36;3.60;;;0.90;;
18695;SDS011;22617;43.690;27.956;2023-10-19T09:17:41;4.93;;;1.20;;
18695;SDS011;22617;43.690;27.956;2023-10-19T09:22:45;10.75;;;1.30;;
18695;SDS011;22617;43.690;27.956;2023-10-19T09:27:50;8.30;;;1.40;;
18695;SDS011;22617;43.690;27.956;2023-10-19T09:32:56;2.97;;;1.48;;
18695;SDS011;22617;43.690;27.956;2023-10-19T09:38:00;3.85;;;1.42;;
18695;SDS011;22617;43.690;27.956;2023-10-19T09:43:08;3.22;;;1.20;;
18695;SDS011;22617;43.690;27.956;2023-10-19T09:48:20;1.73;;;1.10;;
18695;SDS011;22617;43.690;27.956;2023-10-19T09:53:25;8.25;;;1.27;;
18695;SDS011;22617;43.690;27.956;2023-10-19T09:58:31;6.55;;;1.55;;
18695;SDS011;22617;43.690;27.956;2023-10-19T10:03:47;5.93;;;1.52;;
18695;SDS011;22617;43.690;27.956;2023-10-19T10:08:55;5.32;;;2.05;;
18695;SDS011;22617;43.690;27.956;2023-10-19T10:13:58;6.82;;;1.58;;
18695;SDS011;22617;43.690;27.956;2023-10-19T10:19:03;8.10;;;1.40;;
18695;SDS011;22617;43.690;27.956;2023-10-19T10:24:08;4.60;;;1.30;;
18695;SDS011;22617;43.690;27.956;2023-10-19T10:29:21;7.00;;;1.30;;
18695;SDS011;22617;43.690;27.956;2023-10-19T10:34:45;6.13;;;1.10;;
18695;SDS011;22617;43.690;27.956;2023-10-19T10:39:52;7.30;;;1.50;;
18695;SDS011;22617;43.690;27.956;2023-10-19T10:45:04;2.83;;;1.10;;
18695;SDS011;22617;43.690;27.956;2023-10-19T10:50:12;5.68;;;1.20;;
18695;SDS011;22617;43.690;27.956;2023-10-19T10:55:23;10.50;;;1.38;;
18695;SDS011;22617;43.690;27.956;2023-10-19T11:00:28;3.25;;;1.15;;
18695;SDS011;22617;43.690;27.956;2023-10-19T11:05:37;3.38;;;1.20;;
18695;SDS011;22617;43.690;27.956;2023-10-19T11:10:42;8.75;;;1.33;;
18695;SDS011;22617;43.690;27.956;2023-10-19T11:15:49;11.63;;;2.65;;
18695;SDS011;22617;43.690;27.956;2023-10-19T11:21:01;4.93;;;1.23;;
18695;SDS011;22617;43.690;27.956;2023-10-19T11:26:09;5.07;;;1.00;;
18695;SDS011;22617;43.690;27.956;2023-10-19T11:31:13;3.20;;;1.10;;
18695;SDS011;22617;43.690;27.956;2023-10-19T11:36:20;2.72;;;1.27;;
18695;SDS011;22617;43.690;27.956;2023-10-19T11:41:24;2.75;;;1.10;;
18695;SDS011;22617;43.690;27.956;2023-10-19T11:46:28;7.45;;;1.20;;
18695;SDS011;22617;43.690;27.956;2023-10-19T11:51:33;2.38;;;1.10;;
18695;SDS011;22617;43.690;27.956;2023-10-19T11:56:36;11.38;;;1.52;;
18695;SDS011;22617;43.690;27.956;2023-10-19T12:01:40;14.05;;;1.50;;
18695;SDS011;22617;43.690;27.956;2023-10-19T12:06:46;7.47;;;0.93;;
18695;SDS011;22617;43.690;27.956;2023-10-19T12:11:49;2.30;;;1.23;;
18695;SDS011;22617;43.690;27.956;2023-10-19T12:16:55;2.50;;;1.00;;
18695;SDS011;22617;43.690;27.956;2023-10-19T12:22:04;7.45;;;1.13;;
18695;SDS011;22617;43.690;27.956;2023-10-19T12:27:10;2.58;;;1.25;;
18695;SDS011;22617;43.690;27.956;2023-10-19T12:32:15;2.90;;;1.20;;
18695;SDS011;22617;43.690;27.956;2023-10-19T12:37:20;4.35;;;1.02;;
18695;SDS011;22617;43.690;27.956;2023-10-19T12:42:24;6.63;;;1.63;;
18695;SDS011;22617;43.690;27.956;2023-10-19T12:47:28;6.15;;;1.33;;
18695;SDS011;22617;43.690;27.956;2023-10-19T12:52:33;3.22;;;1.00;;
18695;SDS011;22617;43.690;27.956;2023-10-19T12:57:39;5.57;;;1.13;;
18695;SDS011;22617;43.690;27.956;2023-10-19T13:02:42;7.22;;;1.35;;
18695;SDS011;22617;43.690;27.956;2023-10-19T13:07:48;4.15;;;1.23;;
18695;SDS011;22617;43.690;27.956;2023-10-19T13:12:51;5.32;;;1.10;;
18695;SDS011;22617;43.690;27.956;2023-10-19T13:17:55;2.55;;;1.10;;
18695;SDS011;22617;43.690;27.956;2023-10-19T13:23:03;2.78;;;1.20;;
18695;SDS011;22617;43.690;27.956;2023-10-19T13:28:09;5.47;;;1.77;;
18695;SDS011;22617;43.690;27.956;2023-10-19T13:33:13;3.47;;;1.00;;
18695;SDS011;22617;43.690;27.956;2023-10-19T13:38:18;7.70;;;1.60;;
18695;SDS011;22617;43.690;27.956;2023-10-19T13:43:22;1.70;;;1.10;;
18695;SDS011;22617;43.690;27.956;2023-10-19T13:48:44;6.03;;;1.23;;
18695;SDS011;22617;43.690;27.956;2023-10-19T13:53:49;3.40;;;1.48;;
18695;SDS011;22617;43.690;27.956;2023-10-19T13:58:52;3.37;;;1.27;;
18695;SDS011;22617;43.690;27.956;2023-10-19T14:03:56;3.30;;;1.40;;
18695;SDS011;22617;43.690;27.956;2023-10-19T14:09:01;3.80;;;1.10;;
18695;SDS011;22617;43.690;27.956;2023-10-19T14:14:07;3.35;;;1.27;;
18695;SDS011;22617;43.690;27.956;2023-10-19T14:19:12;1.70;;;0.80;;
18695;SDS011;22617;43.690;27.956;2023-10-19T14:24:18;2.43;;;1.00;;
18695;SDS011;22617;43.690;27.956;2023-10-19T14:29:22;2.03;;;0.90;;
18695;SDS011;22617;43.690;27.956;2023-10-19T14:34:25;4.25;;;1.13;;
18695;SDS011;22617;43.690;27.956;2023-10-19T14:39:31;21.67;;;2.40;;
18695;SDS011;22617;43.690;27.956;2023-10-19T14:44:34;6.73;;;1.30;;
18695;SDS011;22617;43.690;27.956;2023-10-19T14:49:38;6.17;;;1.27;;
18695;SDS011;22617;43.690;27.956;2023-10-19T14:54:44;4.00;;;1.10;;
18695;SDS011;22617;43.690;27.956;2023-10-19T14:59:47;2.30;;;1.03;;
18695;SDS011;22617;43.690;27.956;2023-10-19T15:04:51;1.97;;;0.97;;
18695;SDS011;22617;43.690;27.956;2023-10-19T15:09:56;3.70;;;1.00;;
18695;SDS011;22617;43.690;27.956;2023-10-19T15:14:59;6.87;;;1.10;;
18695;SDS011;22617;43.690;27.956;2023-10-19T15:20:05;4.90;;;1.03;;
18695;SDS011;22617;43.690;27.956;2023-10-19T15:25:13;3.73;;;1.30;;
18695;SDS011;22617;43.690;27.956;2023-10-19T15:30:21;3.03;;;1.10;;
18695;SDS011;22617;43.690;27.956;2023-10-19T15:35:26;1.20;;;0.90;;
18695;SDS011;22617;43.690;27.956;2023-10-19T15:40:31;2.43;;;1.30;;
18695;SDS011;22617;43.690;27.956;2023-10-19T15:45:37;1.97;;;1.13;;
18695;SDS011;22617;43.690;27.956;2023-10-19T15:50:41;2.73;;;1.00;;
18695;SDS011;22617;43.690;27.956;2023-10-19T15:55:46;2.60;;;1.00;;
18695;SDS011;22617;43.690;27.956;2023-10-19T16:00:50;5.27;;;1.90;;
18695;SDS011;22617;43.690;27.956;2023-10-19T16:05:54;2.83;;;1.17;;
18695;SDS011;22617;43.690;27.956;2023-10-19T16:10:59;2.03;;;0.97;;
18695;SDS011;22617;43.690;27.956;2023-10-19T16:16:02;5.80;;;2.13;;
18695;SDS011;22617;43.690;27.956;2023-10-19T16:21:06;2.30;;;1.13;;
18695;SDS011;22617;43.690;27.956;2023-10-19T16:26:11;4.13;;;1.33;;
18695;SDS011;22617;43.690;27.956;2023-10-19T16:31:14;1.80;;;1.13;;
18695;SDS011;22617;43.690;27.956;2023-10-19T16:36:22;2.13;;;1.37;;
18695;SDS011;22617;43.690;27.956;2023-10-19T16:41:28;5.77;;;1.50;;
18695;SDS011;22617;43.690;27.956;2023-10-19T16:46:31;3.13;;;1.27;;
18695;SDS011;22617;43.690;27.956;2023-10-19T16:51:35;2.87;;;1.10;;
18695;SDS011;22617;43.690;27.956;2023-10-19T16:56:43;4.70;;;1.20;;
18695;SDS011;22617;43.690;27.956;2023-10-19T17:01:50;5.07;;;1.53;;
18695;SDS011;22617;43.690;27.956;2023-10-19T17:06:54;4.30;;;1.33;;
18695;SDS011;22617;43.690;27.956;2023-10-19T17:11:59;6.43;;;1.30;;
18695;SDS011;22617;43.690;27.956;2023-10-19T17:17:03;2.63;;;1.23;;
18695;SDS011;22617;43.690;27.956;2023-10-19T17:22:07;2.57;;;1.20;;
18695;SDS011;22617;43.690;27.956;2023-10-19T17:27:13;2.93;;;1.20;;
18695;SDS011;22617;43.690;27.956;2023-10-19T17:32:17;3.70;;;1.50;;
18695;SDS011;22617;43.690;27.956;2023-10-19T17:37:20;2.60;;;1.17;;
18695;SDS011;22617;43.690;27.956;2023-10-19T17:42:25;3.23;;;1.27;;
18695;SDS011;22617;43.690;27.956;2023-10-19T17:47:30;3.47;;;1.40;;
18695;SDS011;22617;43.690;27.956;2023-10-19T17:52:34;2.43;;;1.33;;
18695;SDS011;22617;43.690;27.956;2023-10-19T17:57:39;5.70;;;1.30;;
18695;SDS011;22617;43.690;27.956;2023-10-19T18:02:43;3.20;;;1.40;;
18695;SDS011;22617;43.690;27.956;2023-10-19T18:07:47;5.90;;;1.33;;
18695;SDS011;22617;43.690;27.956;2023-10-19T18:12:56;2.07;;;1.40;;
18695;SDS011;22617;43.690;27.956;2023-10-19T18:18:00;9.87;;;1.47;;
18695;SDS011;22617;43.690;27.956;2023-10-19T18:23:04;4.73;;;1.77;;
18695;SDS011;22617;43.690;27.956;2023-10-19T18:28:09;2.27;;;1.37;;
18695;SDS011;22617;43.690;27.956;2023-10-19T18:33:13;5.43;;;1.80;;
18695;SDS011;22617;43.690;27.956;2023-10-19T18:38:16;6.03;;;1.70;;
18695;SDS011;22617;43.690;27.956;2023-10-19T18:43:21;3.37;;;1.57;;
18695;SDS011;22617;43.690;27.956;2023-10-19T18:48:25;5.83;;;1.70;;
18695;SDS011;22617;43.690;27.956;2023-10-19T18:53:29;5.80;;;1.90;;
18695;SDS011;22617;43.690;27.956;2023-10-19T18:58:36;5.67;;;1.77;;
18695;SDS011;22617;43.690;27.956;2023-10-19T19:03:40;4.20;;;1.90;;
18695;SDS011;22617;43.690;27.956;2023-10-19T19:08:44;3.27;;;1.70;;
18695;SDS011;22617;43.690;27.956;2023-10-19T19:13:49;4.83;;;1.70;;
18695;SDS011;22617;43.690;27.956;2023-10-19T19:18:52;2.77;;;1.60;;
18695;SDS011;22617;43.690;27.956;2023-10-19T19:23:56;5.83;;;1.90;;
18695;SDS011;22617;43.690;27.956;2023-10-19T19:29:01;4.93;;;2.23;;
18695;SDS011;22617;43.690;27.956;2023-10-19T19:34:05;6.33;;;1.97;;
18695;SDS011;22617;43.690;27.956;2023-10-19T19:39:08;4.57;;;1.70;;
18695;SDS011;22617;43.690;27.956;2023-10-19T19:44:20;6.80;;;2.20;;
18695;SDS011;22617;43.690;27.956;2023-10-19T19:49:24;4.80;;;1.60;;
18695;SDS011;22617;43.690;27.956;2023-10-19T19:54:28;3.90;;;1.60;;
18695;SDS011;22617;43.690;27.956;2023-10-19T19:59:33;4.53;;;1.63;;
18695;SDS011;22617;43.690;27.956;2023-10-19T20:04:36;6.47;;;1.80;;
18695;SDS011;22617;43.690;27.956;2023-10-19T20:09:40;3.27;;;1.70;;
18695;SDS011;22617;43.690;27.956;2023-10-19T20:14:45;2.80;;;1.70;;
18695;SDS011;22617;43.690;27.956;2023-10-19T20:19:48;7.47;;;1.97;;
18695;SDS011;22617;43.690;27.956;2023-10-19T20:24:52;3.80;;;1.80;;
18695;SDS011;22617;43.690;27.956;2023-10-19T20:29:57;7.83;;;2.57;;
18695;SDS011;22617;43.690;27.956;2023-10-19T20:35:00;3.43;;;1.77;;
18695;SDS011;22617;43.690;27.956;2023-10-19T20:40:05;4.60;;;2.70;;
18695;SDS011;22617;43.690;27.956;2023-10-19T20:45:13;4.37;;;2.10;;
18695;SDS011;22617;43.690;27.956;2023-10-19T20:50:19;4.17;;;2.20;;
18695;SDS011;22617;43.690;27.956;2023-10-19T20:55:24;3.23;;;2.10;;
18695;SDS011;22617;43.690;27.956;2023-10-19T21:00:29;5.30;;;2.53;;
18695;SDS011;22617;43.690;27.956;2023-10-19T21:05:32;5.70;;;2.93;;
18695;SDS011;22617;43.690;27.956;2023-10-19T21:10:38;4.97;;;3.00;;
18695;SDS011;22617;43.690;27.956;2023-10-19T21:15:43;7.87;;;3.60;;
18695;SDS011;22617;43.690;27.956;2023-10-19T21:20:46;7.00;;;3.70;;
18695;SDS011;22617;43.690;27.956;2023-10-19T21:25:50;7.17;;;4.17;;
18695;SDS011;22617;43.690;27.956;2023-10-19T21:30:55;9.07;;;4.23;;
18695;SDS011;22617;43.690;27.956;2023-10-19T21:35:59;8.97;;;4.83;;
18695;SDS011;22617;43.690;27.956;2023-10-19T21:41:02;9.40;;;4.63;;
18695;SDS011;22617;43.690;27.956;2023-10-19T21:46:07;10.57;;;5.00;;
18695;SDS011;22617;43.690;27.956;2023-10-19T21:51:11;10.13;;;4.90;;
18695;SDS011;22617;43.690;27.956;2023-10-19T21:56:16;12.73;;;5.13;;
18695;SDS011;22617;43.690;27.956;2023-10-19T22:01:21;9.80;;;5.43;;
18695;SDS011;22617;43.690;27.956;2023-10-19T22:06:30;10.10;;;5.00;;
18695;SDS011;22617;43.690;27.956;2023-10-19T22:11:34;12.63;;;5.37;;
18695;SDS011;22617;43.690;27.956;2023-10-19T22:16:39;7.90;;;4.93;;
18695;SDS011;22617;43.690;27.956;2023-10-19T22:21:42;10.43;;;4.60;;
18695;SDS011;22617;43.690;27.956;2023-10-19T22:26:46;7.73;;;4.53;;
18695;SDS011;22617;43.690;27.956;2023-10-19T22:31:54;8.83;;;4.83;;
18695;SDS011;22617;43.690;27.956;2023-10-19T22:36:58;8.37;;;4.83;;
18695;SDS011;22617;43.690;27.956;2023-10-19T22:42:02;8.03;;;4.90;;
18695;SDS011;22617;43.690;27.956;2023-10-19T22:47:07;8.23;;;4.63;;
18695;SDS011;22617;43.690;27.956;2023-10-19T22:52:11;10.23;;;4.80;;
18695;SDS011;22617;43.690;27.956;2023-10-19T22:57:14;8.77;;;4.20;;
18695;SDS011;22617;43.690;27.956;2023-10-19T23:02:19;9.97;;;4.30;;
18695;SDS011;22617;43.690;27.956;2023-10-19T23:07:23;7.03;;;4.20;;
18695;SDS011;22617;43.690;27.956;2023-10-19T23:12:29;8.17;;;4.90;;
18695;SDS011;22617;43.690;27.956;2023-10-19T23:17:34;8.20;;;4.70;;
18695;SDS011;22617;43.690;27.956;2023-10-19T23:22:44;8.70;;;4.17;;
18695;SDS011;22617;43.690;27.956;2023-10-19T23:27:48;7.37;;;4.50;;
18695;SDS011;22617;43.690;27.956;2023-10-19T23:32:53;10.97;;;4.40;;
18695;SDS011;22617;43.690;27.956;2023-10-19T23:37:58;8.77;;;4.40;;
18695;SDS011;22617;43.690;27.956;2023-10-19T23:43:02;6.97;;;4.20;;
18695;SDS011;22617;43.690;27.956;2023-10-19T23:48:08;7.13;;;4.20;;
18695;SDS011;22617;43.690;27.956;2023-10-19T23:53:13;8.47;;;4.23;;
18695;SDS011;22617;43.690;27.956;2023-10-19T23:58:18;7.20;;;4.60;;
